createdAt,value
2023-03-11T00:02:08.103Z,96931.50
2023-03-11T00:07:11.865Z,96928.75
2023-03-11T00:12:14.345Z,96939.34
2023-03-11T00:17:16.828Z,96943.81
2023-03-11T00:22:19.078Z,96945.84
2023-03-11T00:27:21.250Z,96960.66
2023-03-11T00:32:23.739Z,96953.38
2023-03-11T00:37:26.006Z,96955.56
2023-03-11T00:42:28.241Z,96966.59
2023-03-11T00:47:30.417Z,96963.38
2023-03-11T00:52:32.670Z,96968.19
2023-03-11T00:57:34.762Z,96971.13
2023-03-11T01:02:38.727Z,96988.03
2023-03-11T01:07:41.186Z,96996.28
2023-03-11T01:12:44.648Z,96993.81
2023-03-11T01:17:47.177Z,96987.78
2023-03-11T01:22:50.150Z,96992.41
2023-03-11T01:27:52.202Z,96994.25
2023-03-11T01:32:56.563Z,97009.38
2023-03-11T01:37:59.832Z,97002.22
2023-03-11T01:43:04.821Z,97005.97
2023-03-11T01:48:10.456Z,97008.25
2023-03-11T01:53:16.168Z,96996.72
2023-03-11T01:58:31.020Z,96988.28
2023-03-11T02:03:39.050Z,97003.38
2023-03-11T02:08:43.591Z,96999.19
2023-03-11T02:13:49.382Z,97005.25
2023-03-11T02:18:52.778Z,97024.59
2023-03-11T02:24:36.124Z,97017.63
2023-03-11T02:29:39.270Z,97017.44
2023-03-11T02:34:42.159Z,97021.28
2023-03-11T02:39:50.025Z,97037.78
2023-03-11T02:45:05.581Z,97040.72
2023-03-11T02:50:13.896Z,97043.81
2023-03-11T02:55:18.137Z,97077.69
2023-03-11T03:00:20.580Z,97043.41
2023-03-11T03:05:32.280Z,97048.75
2023-03-11T03:10:36.294Z,97054.22
2023-03-11T03:15:38.817Z,97058.06
2023-03-11T03:20:41.729Z,97078.81
2023-03-11T03:25:45.959Z,97065.00
2023-03-11T03:30:48.829Z,97055.50
2023-03-11T03:35:51.145Z,97061.91
2023-03-11T03:41:03.741Z,97070.84
2023-03-11T03:46:06.475Z,97087.66
2023-03-11T03:51:15.619Z,97091.13
2023-03-11T03:56:30.722Z,97105.63
2023-03-11T04:01:33.212Z,97105.28
2023-03-11T04:06:35.640Z,97111.00
2023-03-11T04:11:40.411Z,97107.25
2023-03-11T04:16:44.043Z,97116.41
2023-03-11T04:21:51.993Z,97121.78
2023-03-11T04:26:55.902Z,97118.31
2023-03-11T04:31:58.121Z,97124.09
2023-03-11T04:37:00.166Z,97112.63
2023-03-11T04:42:07.785Z,97112.25
2023-03-11T04:47:11.451Z,97117.19
2023-03-11T04:52:14.404Z,97114.91
2023-03-11T04:57:17.179Z,97113.38
2023-03-11T05:02:20.456Z,97121.78
2023-03-11T05:07:33.943Z,97133.25
2023-03-11T05:12:36.450Z,97137.06
2023-03-11T05:17:38.719Z,97137.84
2023-03-11T05:22:41.539Z,97134.03
2023-03-11T05:27:44.868Z,97139.78
2023-03-11T05:32:50.017Z,97155.84
2023-03-11T05:37:54.901Z,97149.31
2023-03-11T05:42:59.029Z,97159.25
2023-03-11T05:48:03.976Z,97147.03
2023-03-11T05:53:06.968Z,97142.41
2023-03-11T05:58:09.604Z,97143.94
2023-03-11T06:03:12.320Z,97157.31
2023-03-11T06:08:16.329Z,97155.81
2023-03-11T06:13:18.667Z,97169.19
2023-03-11T06:18:27.545Z,97169.59
2023-03-11T06:23:31.037Z,97176.06
2023-03-11T06:28:34.042Z,97169.19
2023-03-11T06:33:36.395Z,97171.09
2023-03-11T06:38:38.691Z,97181.44
2023-03-11T06:43:41.151Z,97204.41
2023-03-11T06:48:44.369Z,97204.03
2023-03-11T06:53:53.507Z,97208.25
2023-03-11T06:58:57.017Z,97222.78
2023-03-11T07:04:02.421Z,97225.09
2023-03-11T07:09:05.428Z,97227.41
2023-03-11T07:14:10.163Z,97228.22
2023-03-11T07:19:19.011Z,97245.13
2023-03-11T07:24:21.885Z,97245.31
2023-03-11T07:29:23.876Z,97239.59
2023-03-11T07:34:26.155Z,97248.53
2023-03-11T07:39:28.296Z,97256.72
2023-03-11T07:44:30.470Z,97261.38
2023-03-11T07:49:33.455Z,97261.72
2023-03-11T07:54:35.495Z,97270.84
2023-03-11T07:59:37.476Z,97277.84
2023-03-11T08:04:39.750Z,97283.31
2023-03-11T08:09:42.157Z,97277.72
2023-03-11T08:14:44.747Z,97269.22
2023-03-11T08:19:49.436Z,97287.28
2023-03-11T08:24:53.045Z,97288.69
2023-03-11T08:29:55.326Z,97294.66
2023-03-11T08:34:58.478Z,97294.94
2023-03-11T08:40:03.908Z,97306.91
2023-03-11T08:45:07.381Z,97312.94
2023-03-11T08:50:15.911Z,97305.94
2023-03-11T08:55:25.157Z,97307.97
2023-03-11T09:00:27.590Z,97313.66
2023-03-11T09:05:30.067Z,97307.91
2023-03-11T09:10:32.603Z,97314.38
2023-03-11T09:15:36.510Z,97311.63
2023-03-11T09:20:39.807Z,97317.03
2023-03-11T09:25:42.566Z,97333.25
2023-03-11T09:30:45.313Z,97339.34
2023-03-11T09:35:47.936Z,97330.94
2023-03-11T09:41:01.903Z,97330.31
2023-03-11T09:46:33.539Z,97330.06
2023-03-11T09:51:41.065Z,97335.88
2023-03-11T09:56:44.624Z,97334.81
2023-03-11T10:01:50.679Z,97336.78
2023-03-11T10:06:54.600Z,97334.34
2023-03-11T10:12:27.877Z,97332.81
2023-03-11T10:17:58.817Z,97325.97
2023-03-11T10:23:10.174Z,97339.69
2023-03-11T10:28:18.867Z,97335.50
2023-03-11T10:33:51.676Z,97340.38
2023-03-11T10:38:56.387Z,97340.34
2023-03-11T10:44:23.963Z,97336.91
2023-03-11T10:49:26.674Z,97330.03
2023-03-11T10:54:39.746Z,97320.88
2023-03-11T10:59:56.749Z,97324.84
2023-03-11T11:05:05.882Z,97338.34
2023-03-11T11:10:26.204Z,97339.97
2023-03-11T11:15:36.152Z,97340.31
2023-03-11T11:20:40.197Z,97332.47
2023-03-11T11:25:44.311Z,97330.19
2023-03-11T11:30:56.177Z,97334.50
2023-03-11T11:36:05.712Z,97332.72
2023-03-11T11:41:16.825Z,97332.69
2023-03-11T11:46:57.524Z,97336.97
2023-03-11T11:52:19.552Z,97332.03
2023-03-11T11:57:24.277Z,97323.00
2023-03-11T12:02:50.004Z,97321.31
2023-03-11T12:08:05.463Z,97312.31
2023-03-11T12:13:50.709Z,97308.25
2023-03-11T12:18:58.966Z,97297.88
2023-03-11T12:24:37.855Z,97290.63
2023-03-11T12:29:46.275Z,97295.59
2023-03-11T12:34:49.099Z,97290.38
2023-03-11T12:39:51.512Z,97274.06
2023-03-11T12:44:53.988Z,97277.84
2023-03-11T12:50:16.307Z,97287.06
2023-03-11T12:55:30.595Z,97284.53
2023-03-11T13:00:57.012Z,97281.88
2023-03-11T13:06:06.956Z,97271.84
2023-03-11T13:11:34.182Z,97272.59
2023-03-11T13:16:38.695Z,97271.09
2023-03-11T13:21:41.939Z,97275.81
2023-03-11T13:26:58.862Z,97271.97
2023-03-11T13:32:17.977Z,97285.50
2023-03-11T13:37:50.589Z,97279.47
2023-03-11T13:43:02.403Z,97270.75
2023-03-11T13:48:18.571Z,97288.47
2023-03-11T13:53:36.354Z,97277.91
2023-03-11T13:58:38.365Z,97275.84
2023-03-11T14:03:45.914Z,97283.84
2023-03-11T14:08:57.221Z,97279.44
2023-03-11T14:13:59.721Z,97287.34
2023-03-11T14:19:15.797Z,97280.00
2023-03-11T14:24:29.374Z,97290.19
2023-03-11T14:29:43.524Z,97291.53
2023-03-11T14:34:46.198Z,97278.97
2023-03-11T14:39:51.138Z,97278.53
2023-03-11T14:45:05.304Z,97274.66
2023-03-11T14:50:15.900Z,97282.91
2023-03-11T14:55:25.179Z,97272.28
2023-03-11T15:00:39.031Z,97272.66
2023-03-11T15:06:15.815Z,97293.44
2023-03-11T15:11:19.637Z,97296.97
2023-03-11T15:16:37.514Z,97296.88
2023-03-11T15:21:48.068Z,97303.34
2023-03-11T15:27:01.740Z,97304.72
2023-03-11T15:32:33.451Z,97311.56
2023-03-11T15:37:35.529Z,97308.44
2023-03-11T15:42:38.141Z,97315.59
2023-03-11T15:47:40.930Z,97320.25
2023-03-11T15:52:43.152Z,97329.22
2023-03-11T15:57:49.138Z,97335.69
2023-03-11T16:02:52.150Z,97344.00
2023-03-11T16:07:54.274Z,97348.59
2023-03-11T16:12:56.432Z,97354.34
2023-03-11T16:18:01.349Z,97356.47
2023-03-11T16:23:04.896Z,97342.69
2023-03-11T16:28:07.849Z,97329.63
2023-03-11T16:33:10.312Z,97344.06
2023-03-11T16:38:12.848Z,97350.69
2023-03-11T16:43:15.644Z,97353.69
2023-03-11T16:48:18.311Z,97362.41
2023-03-11T16:53:20.791Z,97370.53
2023-03-11T16:58:23.313Z,97383.41
2023-03-11T17:03:27.533Z,97381.56
2023-03-11T17:08:32.133Z,97394.47
2023-03-11T17:13:34.806Z,97396.38
2023-03-11T17:18:37.528Z,97391.66
2023-03-11T17:23:40.166Z,97410.63
2023-03-11T17:28:43.527Z,97421.16
2023-03-11T17:33:46.330Z,97426.44
2023-03-11T17:38:52.063Z,97438.13
2023-03-11T17:43:54.546Z,97449.97
2023-03-11T17:48:56.991Z,97458.13
2023-03-11T17:54:00.291Z,97467.84
2023-03-11T17:59:02.800Z,97464.88
2023-03-11T18:04:05.631Z,97470.38
2023-03-11T18:09:08.228Z,97477.53
2023-03-11T18:14:12.420Z,97476.75
2023-03-11T18:19:16.533Z,97490.19
2023-03-11T18:24:19.158Z,97488.25
2023-03-11T18:29:21.557Z,97502.94
2023-03-11T18:34:24.090Z,97511.28
2023-03-11T18:39:26.582Z,97517.41
2023-03-11T18:44:28.984Z,97522.44
2023-03-11T18:49:31.087Z,97527.00
2023-03-11T18:54:36.067Z,97521.69
2023-03-11T18:59:38.132Z,97524.72
2023-03-11T19:04:40.220Z,97526.66
2023-03-11T19:09:42.357Z,97517.28
2023-03-11T19:14:44.348Z,97514.03
2023-03-11T19:19:46.820Z,97531.88
2023-03-11T19:24:48.986Z,97540.72
2023-03-11T19:29:51.256Z,97540.09
2023-03-11T19:34:53.277Z,97543.22
2023-03-11T19:39:55.427Z,97549.75
2023-03-11T19:44:57.522Z,97560.19
2023-03-11T19:49:59.730Z,97556.25
2023-03-11T19:55:02.066Z,97562.78
2023-03-11T20:00:05.703Z,97567.38
2023-03-11T20:05:08.735Z,97576.28
2023-03-11T20:10:11.540Z,97581.47
2023-03-11T20:15:13.739Z,97581.69
2023-03-11T20:20:16.361Z,97584.59
2023-03-11T20:25:18.681Z,97584.75
2023-03-11T20:30:21.977Z,97596.28
2023-03-11T20:35:24.184Z,97602.41
2023-03-11T20:40:26.318Z,97603.66
2023-03-11T20:45:28.429Z,97602.28
2023-03-11T20:50:30.532Z,97615.16
2023-03-11T20:55:32.735Z,97613.44
2023-03-11T21:00:35.434Z,97630.00
2023-03-11T21:05:38.434Z,97617.69
2023-03-11T21:10:40.636Z,97622.88
2023-03-11T21:15:42.855Z,97626.16
2023-03-11T21:20:45.155Z,97619.41
2023-03-11T21:25:47.749Z,97621.94
2023-03-11T21:31:10.847Z,97627.00
2023-03-11T21:36:15.982Z,97629.19
2023-03-11T21:41:26.266Z,97624.72
2023-03-11T21:46:32.234Z,97632.84
2023-03-11T21:51:34.415Z,97640.88
2023-03-11T21:56:36.672Z,97635.59
2023-03-11T22:01:39.289Z,97638.66
2023-03-11T22:06:41.446Z,97643.28
2023-03-11T22:11:43.813Z,97634.84
2023-03-11T22:16:46.461Z,97629.59
2023-03-11T22:21:49.124Z,97638.75
2023-03-11T22:26:51.384Z,97633.56
2023-03-11T22:31:53.521Z,97641.19
2023-03-11T22:36:55.581Z,97639.50
2023-03-11T22:41:57.647Z,97637.06
2023-03-11T22:46:59.680Z,97632.84
2023-03-11T22:52:01.822Z,97627.72
2023-03-11T22:57:03.859Z,97638.44
2023-03-11T23:02:05.921Z,97641.91
2023-03-11T23:07:07.980Z,97641.19
2023-03-11T23:12:10.245Z,97639.63
2023-03-11T23:17:12.675Z,97644.59
2023-03-11T23:22:14.893Z,97655.50
2023-03-11T23:27:17.689Z,97643.88
2023-03-11T23:32:19.852Z,97652.06
2023-03-11T23:37:21.952Z,97652.06
2023-03-11T23:42:26.182Z,97651.31
2023-03-11T23:47:28.738Z,97653.25
2023-03-11T23:52:30.707Z,97649.03
2023-03-11T23:57:37.979Z,97642.84
